Time;durP1;ratioP1;P1;durP2;ratioP2;P2;SDS_P1;SDS_P2;PMS_P1;PMS_P2;Temp;Humidity;BMP_temperature;BMP_pressure;BME280_temperature;BME280_humidity;BME280_pressure;Samples;Min_cycle;Max_cycle;Signal;HPM_P1;HPM_P2
2024/03/23 00:02:00;;;;;;;11.85;3.88;;;10.40;99.90;;;;;;4156959;28;20071;-72
2024/03/23 00:04:00;;;;;;;13.55;4.18;;;10.40;99.90;;;;;;4158082;28;20038;-71
2024/03/23 00:06:01;;;;;;;11.40;3.65;;;10.40;99.90;;;;;;4124215;28;20442;-70
2024/03/23 00:08:01;;;;;;;12.55;3.58;;;10.30;99.90;;;;;;4159329;28;20041;-70
2024/03/23 00:10:02;;;;;;;13.50;4.10;;;10.30;99.90;;;;;;4159174;28;20120;-73
2024/03/23 00:12:02;;;;;;;13.98;3.92;;;10.10;99.90;;;;;;4160363;28;20037;-71
2024/03/23 00:14:03;;;;;;;12.23;3.25;;;10.00;99.90;;;;;;4158867;28;20522;-71
2024/03/23 00:16:04;;;;;;;11.25;3.80;;;9.80;99.90;;;;;;4158137;28;20394;-69
2024/03/23 00:18:04;;;;;;;11.95;3.42;;;9.70;99.90;;;;;;4159689;28;20446;-71
2024/03/23 00:20:05;;;;;;;12.52;3.42;;;9.70;99.90;;;;;;4159857;28;20040;-73
2024/03/23 00:22:06;;;;;;;11.27;3.53;;;9.60;99.90;;;;;;4152597;28;20029;-72
2024/03/23 00:24:07;;;;;;;9.48;2.97;;;9.50;99.90;;;;;;4160771;28;20043;-72
2024/03/23 00:26:07;;;;;;;8.88;3.08;;;9.50;99.90;;;;;;4159378;28;20041;-72
2024/03/23 00:28:10;;;;;;;6.65;2.67;;;9.40;99.90;;;;;;4158661;28;20421;-72
2024/03/23 00:30:11;;;;;;;7.43;2.53;;;9.40;99.90;;;;;;4174437;28;20064;-72
2024/03/23 00:32:12;;;;;;;8.07;2.55;;;9.40;99.90;;;;;;4155040;28;20478;-72
2024/03/23 00:34:13;;;;;;;7.75;2.58;;;9.40;99.90;;;;;;4159960;28;20053;-72
2024/03/23 00:36:13;;;;;;;8.05;2.53;;;9.40;99.90;;;;;;4158044;28;20032;-72
2024/03/23 00:38:14;;;;;;;5.05;2.10;;;9.40;99.90;;;;;;4160125;28;20096;-72
2024/03/23 00:40:14;;;;;;;7.88;2.20;;;9.40;99.90;;;;;;4159355;28;20033;-72
2024/03/23 00:42:15;;;;;;;6.18;2.17;;;9.40;99.90;;;;;;4160499;28;20071;-72
2024/03/23 00:44:16;;;;;;;8.27;2.33;;;9.40;99.90;;;;;;4159050;28;20478;-67
2024/03/23 00:46:16;;;;;;;8.02;1.92;;;9.40;99.90;;;;;;4159475;28;20107;-67
2024/03/23 00:48:17;;;;;;;8.02;2.20;;;9.40;99.90;;;;;;4160325;28;20041;-67
2024/03/23 00:50:17;;;;;;;4.85;1.73;;;9.40;99.90;;;;;;4155320;28;20041;-67
2024/03/23 00:52:18;;;;;;;5.43;1.80;;;9.40;99.90;;;;;;4157280;28;20445;-65
2024/03/23 00:54:18;;;;;;;9.82;2.75;;;9.40;99.90;;;;;;4154346;28;20037;-67
2024/03/23 00:56:19;;;;;;;7.50;2.10;;;9.40;99.90;;;;;;4156747;28;20065;-67
2024/03/23 00:58:19;;;;;;;8.50;2.10;;;9.40;99.90;;;;;;4161603;28;20521;-67
2024/03/23 01:00:20;;;;;;;9.60;2.30;;;9.30;99.90;;;;;;4145494;28;20033;-67
2024/03/23 01:02:21;;;;;;;5.30;2.00;;;9.30;99.90;;;;;;4163562;28;20033;-67
2024/03/23 01:04:21;;;;;;;5.38;1.75;;;9.30;99.90;;;;;;4163361;28;20064;-67
2024/03/23 01:06:22;;;;;;;5.15;1.73;;;9.30;99.90;;;;;;4159775;28;20053;-67
2024/03/23 01:08:23;;;;;;;5.00;1.67;;;9.30;99.90;;;;;;4162820;28;21281;-67
2024/03/23 01:10:23;;;;;;;3.85;1.45;;;9.40;99.90;;;;;;4160981;28;20037;-67
2024/03/23 01:12:24;;;;;;;3.47;1.15;;;9.40;99.90;;;;;;4161592;28;20466;-67
2024/03/23 01:14:25;;;;;;;4.35;1.67;;;9.40;99.90;;;;;;4163048;28;20117;-67
2024/03/23 01:16:25;;;;;;;4.30;1.58;;;9.40;99.90;;;;;;4156020;28;20034;-67
2024/03/23 01:18:26;;;;;;;3.47;1.48;;;9.40;99.90;;;;;;4157692;28;20049;-67
2024/03/23 01:20:27;;;;;;;2.83;1.17;;;9.40;99.90;;;;;;4159985;28;20029;-66
2024/03/23 01:22:28;;;;;;;5.38;1.52;;;9.40;99.90;;;;;;4162629;28;20471;-67
2024/03/23 01:24:28;;;;;;;7.05;1.75;;;9.50;99.90;;;;;;4162715;28;20037;-67
2024/03/23 01:26:29;;;;;;;5.57;1.50;;;9.50;99.90;;;;;;4162656;28;20390;-67
2024/03/23 01:28:29;;;;;;;4.68;1.42;;;9.30;99.90;;;;;;4163333;28;20068;-67
2024/03/23 01:30:30;;;;;;;4.72;1.67;;;9.40;99.90;;;;;;4162515;28;20038;-66
2024/03/23 01:32:31;;;;;;;4.95;1.33;;;9.40;99.90;;;;;;4162885;28;20030;-67
2024/03/23 01:34:31;;;;;;;9.00;2.13;;;9.40;99.90;;;;;;4162947;28;20029;-67
2024/03/23 01:36:32;;;;;;;6.47;1.40;;;9.40;99.90;;;;;;4160288;28;20033;-67
2024/03/23 01:38:32;;;;;;;5.45;1.83;;;9.40;99.90;;;;;;4160514;28;20037;-67
2024/03/23 01:40:33;;;;;;;5.60;1.70;;;9.40;99.90;;;;;;4159894;28;20422;-67
2024/03/23 01:42:34;;;;;;;5.03;1.23;;;9.30;99.90;;;;;;4160186;28;20025;-68
2024/03/23 01:44:35;;;;;;;6.50;2.10;;;9.30;99.90;;;;;;4161167;28;20068;-68
2024/03/23 01:46:37;;;;;;;4.10;1.45;;;9.30;99.90;;;;;;4161816;28;20037;-68
2024/03/23 01:48:37;;;;;;;5.88;1.48;;;9.30;99.90;;;;;;4159970;28;20053;-67
2024/03/23 01:50:38;;;;;;;5.18;1.45;;;9.30;99.90;;;;;;4155930;28;20467;-67
2024/03/23 01:52:39;;;;;;;7.15;1.80;;;9.30;99.90;;;;;;4162476;28;20037;-68
2024/03/23 01:54:40;;;;;;;4.32;1.33;;;9.30;99.90;;;;;;4162632;28;20033;-67
2024/03/23 01:56:41;;;;;;;4.85;1.30;;;9.30;99.90;;;;;;4162302;28;20371;-67
2024/03/23 01:58:42;;;;;;;2.38;1.15;;;9.30;99.90;;;;;;4158876;28;20072;-67
2024/03/23 02:00:42;;;;;;;5.57;1.42;;;9.30;99.90;;;;;;4159902;28;20048;-67
2024/03/23 02:02:46;;;;;;;6.43;1.75;;;9.20;99.90;;;;;;4161081;28;20047;-67
2024/03/23 02:04:47;;;;;;;2.45;1.17;;;9.20;99.90;;;;;;4161104;28;20494;-67
2024/03/23 02:06:48;;;;;;;4.45;1.23;;;9.20;99.90;;;;;;4161394;28;20044;-67
2024/03/23 02:08:50;;;;;;;4.03;1.45;;;9.20;99.90;;;;;;4155760;28;20049;-67
2024/03/23 02:10:51;;;;;;;6.03;1.35;;;9.20;99.90;;;;;;4161258;28;20036;-67
2024/03/23 02:12:51;;;;;;;4.10;1.35;;;9.20;99.90;;;;;;4159352;28;20112;-61
2024/03/23 02:14:52;;;;;;;3.72;1.55;;;9.30;99.90;;;;;;4159522;28;20433;-61
2024/03/23 02:16:53;;;;;;;4.18;1.40;;;9.20;99.90;;;;;;4156569;28;20061;-60
2024/03/23 02:18:53;;;;;;;6.75;1.80;;;9.30;99.90;;;;;;4160924;28;20703;-61
2024/03/23 02:20:54;;;;;;;7.18;1.50;;;9.30;99.90;;;;;;4162567;28;20036;-61
2024/03/23 02:22:54;;;;;;;3.63;1.60;;;9.30;99.90;;;;;;4162429;28;20508;-61
2024/03/23 02:24:55;;;;;;;2.95;1.13;;;9.30;99.90;;;;;;4161025;28;20041;-61
2024/03/23 02:26:55;;;;;;;4.38;1.58;;;9.30;99.90;;;;;;4161358;28;20048;-61
2024/03/23 02:28:56;;;;;;;3.25;1.10;;;9.40;99.90;;;;;;4162288;28;20033;-61
2024/03/23 02:30:58;;;;;;;2.47;1.02;;;9.40;99.90;;;;;;4161849;28;20381;-60
2024/03/23 02:32:59;;;;;;;3.55;1.00;;;9.30;99.90;;;;;;4161011;28;20410;-61
2024/03/23 02:34:59;;;;;;;3.90;1.42;;;9.40;99.90;;;;;;4160450;28;20033;-61
2024/03/23 02:37:00;;;;;;;3.40;1.17;;;9.30;99.90;;;;;;4151160;28;20095;-61
2024/03/23 02:39:00;;;;;;;5.38;1.42;;;9.30;99.90;;;;;;4157866;28;20045;-61
2024/03/23 02:41:04;;;;;;;3.95;1.17;;;9.30;99.90;;;;;;4158160;28;20080;-61
2024/03/23 02:43:05;;;;;;;4.90;1.42;;;9.30;99.90;;;;;;4157144;28;20033;-61
2024/03/23 02:45:06;;;;;;;4.90;1.30;;;9.30;99.90;;;;;;4161045;28;20172;-64
2024/03/23 02:47:06;;;;;;;5.68;1.30;;;9.30;99.90;;;;;;4160567;28;20111;-62
2024/03/23 02:49:07;;;;;;;4.00;1.30;;;9.20;99.90;;;;;;4160622;28;20033;-61
2024/03/23 02:51:08;;;;;;;3.38;1.33;;;9.20;99.90;;;;;;4158076;28;20120;-62
2024/03/23 02:53:09;;;;;;;5.78;1.05;;;9.20;99.90;;;;;;4161918;28;20501;-61
2024/03/23 02:55:10;;;;;;;3.00;1.02;;;9.20;99.90;;;;;;4161226;28;20471;-62
2024/03/23 02:57:11;;;;;;;5.05;1.55;;;9.20;99.90;;;;;;4161767;28;20453;-61
2024/03/23 02:59:11;;;;;;;7.57;1.65;;;9.10;99.90;;;;;;4160682;28;20092;-61
2024/03/23 03:01:12;;;;;;;4.93;1.20;;;9.20;99.90;;;;;;4153844;28;20364;-61
2024/03/23 03:03:12;;;;;;;5.60;1.35;;;9.20;99.90;;;;;;4161749;28;20029;-61
2024/03/23 03:05:13;;;;;;;8.52;1.63;;;9.20;99.90;;;;;;4145233;28;20191;-61
2024/03/23 03:07:14;;;;;;;4.82;1.50;;;9.20;99.90;;;;;;4160434;28;20374;-61
2024/03/23 03:09:15;;;;;;;3.65;1.30;;;9.10;99.90;;;;;;4159330;28;20033;-61
2024/03/23 03:11:15;;;;;;;7.40;1.63;;;9.10;99.90;;;;;;4153615;28;20037;-61
2024/03/23 03:13:16;;;;;;;3.92;1.27;;;9.10;99.90;;;;;;4161727;28;20391;-61
2024/03/23 03:15:17;;;;;;;5.55;1.42;;;9.10;99.90;;;;;;4157872;28;20045;-61
2024/03/23 03:17:19;;;;;;;5.97;1.77;;;9.10;99.90;;;;;;4161617;28;20054;-61
2024/03/23 03:19:19;;;;;;;2.90;1.35;;;9.00;99.90;;;;;;4157745;28;20045;-61
2024/03/23 03:21:20;;;;;;;5.85;1.27;;;9.00;99.90;;;;;;4159321;28;20087;-61
2024/03/23 03:23:21;;;;;;;6.30;1.80;;;9.00;99.90;;;;;;4161154;28;20053;-61
2024/03/23 03:25:21;;;;;;;4.28;1.27;;;9.00;99.90;;;;;;4159549;28;20482;-61
2024/03/23 03:27:22;;;;;;;5.55;2.03;;;8.90;99.90;;;;;;4159721;28;20056;-61
2024/03/23 03:29:23;;;;;;;4.47;1.38;;;8.90;99.90;;;;;;4149923;28;20583;-61
2024/03/23 03:31:24;;;;;;;4.13;1.30;;;9.00;99.90;;;;;;4157965;28;20164;-61
2024/03/23 03:33:25;;;;;;;4.35;1.65;;;8.90;99.90;;;;;;4160345;28;20038;-67
2024/03/23 03:35:25;;;;;;;6.82;1.65;;;8.90;99.90;;;;;;4161140;28;20474;-67
2024/03/23 03:37:26;;;;;;;5.05;1.63;;;8.90;99.90;;;;;;4160622;28;20136;-67
2024/03/23 03:39:27;;;;;;;5.07;1.70;;;8.90;99.90;;;;;;4158959;28;20044;-67
2024/03/23 03:41:27;;;;;;;7.68;1.98;;;8.90;99.90;;;;;;4157612;28;20117;-67
2024/03/23 03:43:28;;;;;;;8.85;1.92;;;8.90;99.90;;;;;;4144823;28;20457;-67
2024/03/23 03:45:29;;;;;;;3.47;1.58;;;8.90;99.90;;;;;;4144101;28;20048;-67
2024/03/23 03:47:29;;;;;;;4.05;1.60;;;8.90;99.90;;;;;;4144263;28;20054;-67
2024/03/23 03:49:30;;;;;;;8.90;1.80;;;8.80;99.90;;;;;;4143405;28;20034;-67
2024/03/23 03:51:31;;;;;;;5.00;1.73;;;8.80;99.90;;;;;;4146255;28;20124;-67
2024/03/23 03:53:31;;;;;;;3.67;1.85;;;8.70;99.90;;;;;;4161335;28;20052;-67
2024/03/23 03:55:32;;;;;;;12.10;2.58;;;8.70;99.90;;;;;;4159736;28;20041;-67
2024/03/23 03:57:32;;;;;;;8.75;2.47;;;8.60;99.90;;;;;;4160942;28;20041;-67
2024/03/23 03:59:33;;;;;;;6.78;2.20;;;8.60;99.90;;;;;;4160994;28;20042;-66
2024/03/23 04:01:33;;;;;;;7.80;2.05;;;8.60;99.90;;;;;;4159642;28;20385;-67
2024/03/23 04:03:34;;;;;;;7.68;2.30;;;8.60;99.90;;;;;;4159314;28;20064;-67
2024/03/23 04:05:35;;;;;;;7.10;2.00;;;8.60;99.90;;;;;;4155442;28;20069;-67
2024/03/23 04:07:35;;;;;;;11.20;2.38;;;8.60;99.90;;;;;;4161531;28;20037;-67
2024/03/23 04:09:36;;;;;;;4.68;1.83;;;8.60;99.90;;;;;;4159520;28;20155;-67
2024/03/23 04:11:37;;;;;;;7.95;2.05;;;8.50;99.90;;;;;;4160247;28;20029;-67
2024/03/23 04:13:41;;;;;;;6.65;2.30;;;8.60;99.90;;;;;;4159844;28;20048;-67
2024/03/23 04:15:42;;;;;;;10.13;2.75;;;8.50;99.90;;;;;;4154776;28;20099;-67
2024/03/23 04:17:42;;;;;;;8.27;2.45;;;8.40;99.90;;;;;;4153299;28;20046;-67
2024/03/23 04:19:44;;;;;;;7.63;2.58;;;8.50;99.90;;;;;;4153873;28;20514;-67
2024/03/23 04:21:45;;;;;;;6.53;2.30;;;8.40;99.90;;;;;;4158471;28;20113;-67
2024/03/23 04:23:46;;;;;;;6.75;2.13;;;8.40;99.90;;;;;;4160420;28;20463;-67
2024/03/23 04:25:46;;;;;;;6.57;2.22;;;8.40;99.90;;;;;;4154035;28;20033;-67
2024/03/23 04:27:47;;;;;;;7.43;2.35;;;8.40;99.90;;;;;;4156851;28;20042;-67
2024/03/23 04:29:52;;;;;;;7.90;2.20;;;8.40;99.90;;;;;;4155579;28;20470;-67
2024/03/23 04:31:53;;;;;;;8.43;2.40;;;8.40;99.90;;;;;;4153863;28;20036;-67
2024/03/23 04:33:53;;;;;;;9.38;2.63;;;8.40;99.90;;;;;;4148053;28;20389;-67
2024/03/23 04:35:54;;;;;;;5.40;1.92;;;8.40;99.90;;;;;;4153613;28;20390;-67
2024/03/23 04:37:58;;;;;;;3.58;1.83;;;8.40;99.90;;;;;;4153894;28;20045;-67
2024/03/23 04:40:00;;;;;;;7.10;2.35;;;8.40;99.90;;;;;;4160241;28;20033;-67
2024/03/23 04:42:01;;;;;;;8.55;2.22;;;8.40;99.90;;;;;;4158049;28;20038;-68
2024/03/23 04:44:02;;;;;;;8.70;2.67;;;8.40;99.90;;;;;;4159649;28;20035;-64
2024/03/23 04:46:02;;;;;;;9.30;2.53;;;8.40;99.90;;;;;;4159276;28;20151;-64
2024/03/23 04:48:03;;;;;;;11.48;3.30;;;8.40;99.90;;;;;;4158298;28;20045;-64
2024/03/23 04:50:05;;;;;;;5.43;2.15;;;8.40;99.90;;;;;;4160221;28;20045;-64
2024/03/23 04:52:05;;;;;;;6.70;2.63;;;8.30;99.90;;;;;;4159543;28;20037;-64
2024/03/23 04:54:06;;;;;;;6.43;2.53;;;8.30;99.90;;;;;;4158963;28;20470;-64
2024/03/23 04:56:06;;;;;;;10.63;2.78;;;8.40;99.90;;;;;;4158355;28;20025;-64
2024/03/23 04:58:07;;;;;;;9.50;2.35;;;8.40;99.90;;;;;;4158467;28;20421;-64
2024/03/23 05:00:17;;;;;;;10.07;2.92;;;8.40;99.90;;;;;;4158027;28;20042;-64
2024/03/23 05:02:17;;;;;;;6.68;2.70;;;8.40;99.90;;;;;;4153239;28;20033;-64
2024/03/23 05:04:18;;;;;;;7.85;2.28;;;8.40;99.90;;;;;;4156996;28;20033;-64
2024/03/23 05:06:19;;;;;;;4.32;2.05;;;8.40;99.90;;;;;;4157445;28;20085;-64
2024/03/23 05:08:19;;;;;;;6.53;2.42;;;8.40;99.90;;;;;;4157046;28;20505;-64
2024/03/23 05:10:20;;;;;;;7.15;2.47;;;8.40;99.90;;;;;;4157412;28;20050;-64
2024/03/23 05:12:20;;;;;;;9.65;2.83;;;8.40;99.90;;;;;;4147828;28;20428;-64
2024/03/23 05:14:21;;;;;;;9.77;2.78;;;8.40;99.90;;;;;;4156683;28;20033;-64
2024/03/23 05:16:22;;;;;;;9.07;3.25;;;8.40;99.90;;;;;;4154249;28;20041;-64
2024/03/23 05:18:22;;;;;;;6.25;2.60;;;8.40;99.90;;;;;;4157295;28;20124;-64
2024/03/23 05:20:23;;;;;;;5.38;2.47;;;8.40;99.90;;;;;;4156518;28;20152;-64
2024/03/23 05:22:23;;;;;;;8.82;2.75;;;8.40;99.90;;;;;;4158137;28;20040;-64
2024/03/23 05:24:24;;;;;;;10.68;2.80;;;8.30;99.90;;;;;;4156357;28;20045;-64
2024/03/23 05:26:25;;;;;;;7.57;2.60;;;8.30;99.90;;;;;;4157521;28;20029;-64
2024/03/23 05:28:25;;;;;;;8.25;3.00;;;8.30;99.90;;;;;;4156639;28;20094;-64
2024/03/23 05:30:26;;;;;;;11.77;3.22;;;8.20;99.90;;;;;;4157704;28;21008;-63
2024/03/23 05:32:26;;;;;;;7.97;2.65;;;8.20;99.90;;;;;;4157923;28;20026;-64
2024/03/23 05:34:28;;;;;;;8.05;2.58;;;8.20;99.90;;;;;;4157410;28;20030;-64
2024/03/23 05:36:29;;;;;;;6.68;2.70;;;8.20;99.90;;;;;;4152570;28;20517;-64
2024/03/23 05:38:30;;;;;;;7.45;2.65;;;8.20;99.90;;;;;;4157492;28;20045;-64
2024/03/23 05:40:31;;;;;;;9.73;2.78;;;8.20;99.90;;;;;;4156973;28;20112;-63
2024/03/23 05:42:32;;;;;;;5.57;2.60;;;8.10;99.90;;;;;;4158031;28;20044;-64
2024/03/23 05:44:33;;;;;;;5.72;2.45;;;8.20;99.90;;;;;;4159104;28;20033;-64
2024/03/23 05:46:33;;;;;;;8.02;2.78;;;8.10;99.90;;;;;;4158979;28;20049;-64
2024/03/23 05:48:34;;;;;;;6.70;3.03;;;8.10;99.90;;;;;;4160815;28;20053;-63
2024/03/23 05:50:35;;;;;;;14.05;2.80;;;8.10;99.90;;;;;;4157947;28;20049;-63
2024/03/23 05:52:36;;;;;;;7.28;2.28;;;8.10;99.90;;;;;;4159978;28;20509;-67
2024/03/23 05:54:36;;;;;;;12.18;4.05;;;8.00;99.90;;;;;;4159739;28;20034;-60
2024/03/23 05:56:37;;;;;;;9.18;3.55;;;7.90;99.90;;;;;;4158501;28;20033;-60
2024/03/23 05:58:38;;;;;;;13.65;2.97;;;8.00;99.90;;;;;;4158097;28;20567;-60
2024/03/23 06:00:38;;;;;;;7.00;2.72;;;7.90;99.90;;;;;;4160121;28;20038;-62
2024/03/23 06:02:39;;;;;;;10.52;3.10;;;7.90;99.90;;;;;;4158416;28;20034;-62
2024/03/23 06:04:39;;;;;;;12.65;3.15;;;7.90;99.90;;;;;;4159111;28;20112;-60
2024/03/23 06:06:40;;;;;;;7.82;2.63;;;7.90;99.90;;;;;;4155076;28;20249;-61
2024/03/23 06:08:40;;;;;;;5.70;3.20;;;7.90;99.90;;;;;;4155400;28;20585;-61
2024/03/23 06:10:41;;;;;;;11.02;3.35;;;7.90;99.90;;;;;;4159295;28;20037;-60
2024/03/23 06:12:42;;;;;;;9.88;3.67;;;7.90;99.90;;;;;;4160754;28;20037;-60
2024/03/23 06:14:42;;;;;;;9.57;3.17;;;7.90;99.90;;;;;;4159675;28;20549;-60
2024/03/23 06:16:43;;;;;;;10.48;3.42;;;7.90;99.90;;;;;;4160082;28;20497;-60
2024/03/23 06:18:44;;;;;;;14.43;4.13;;;7.90;99.90;;;;;;4157695;28;20022;-60
2024/03/23 06:20:44;;;;;;;8.18;3.30;;;7.90;99.90;;;;;;4154190;28;20033;-60
2024/03/23 06:22:45;;;;;;;11.45;3.50;;;8.00;99.90;;;;;;4158286;28;20478;-66
2024/03/23 06:24:45;;;;;;;12.55;4.43;;;8.00;99.90;;;;;;4162570;28;20386;-61
2024/03/23 06:26:46;;;;;;;9.40;3.92;;;8.00;99.90;;;;;;4157058;28;20482;-60
2024/03/23 06:28:47;;;;;;;14.13;3.95;;;8.00;99.90;;;;;;4157927;28;20034;-60
2024/03/23 06:30:48;;;;;;;10.82;3.85;;;8.00;99.90;;;;;;4149331;28;20056;-61
2024/03/23 06:32:49;;;;;;;11.30;4.03;;;8.10;99.90;;;;;;4158221;28;20038;-60
2024/03/23 06:34:49;;;;;;;11.45;4.18;;;8.10;99.90;;;;;;4159991;28;20025;-59
2024/03/23 06:36:50;;;;;;;21.77;4.57;;;8.30;99.90;;;;;;4159182;28;20363;-67
2024/03/23 06:38:52;;;;;;;13.57;4.22;;;8.60;99.90;;;;;;4160410;28;20495;-66
2024/03/23 06:40:52;;;;;;;17.73;4.85;;;8.80;99.90;;;;;;4158472;28;20486;-71
2024/03/23 06:42:53;;;;;;;13.80;4.78;;;9.00;99.90;;;;;;4149776;28;20163;-71
2024/03/23 06:44:53;;;;;;;11.65;4.70;;;9.20;99.90;;;;;;4163118;28;20049;-71
2024/03/23 06:46:54;;;;;;;11.52;4.43;;;9.50;99.90;;;;;;4161368;28;20115;-72
2024/03/23 06:48:55;;;;;;;13.93;4.70;;;9.80;99.90;;;;;;4162622;28;20390;-71
2024/03/23 06:50:58;;;;;;;10.30;4.63;;;9.90;99.90;;;;;;4162662;28;20039;-71
2024/03/23 06:53:01;;;;;;;11.88;4.50;;;10.20;99.90;;;;;;4162883;28;20021;-71
2024/03/23 06:55:04;;;;;;;14.07;5.55;;;10.50;99.90;;;;;;4162602;28;20029;-71
2024/03/23 06:57:04;;;;;;;;;;;10.90;99.90;;;;;;4163015;28;20025;-71
2024/03/23 06:59:05;;;;;;;15.20;5.93;;;11.30;99.90;;;;;;4159879;28;19909;-71
2024/03/23 07:01:06;;;;;;;13.02;4.97;;;11.60;99.90;;;;;;4159523;28;20037;-71
2024/03/23 07:03:07;;;;;;;12.95;4.78;;;11.90;99.90;;;;;;4163514;28;20025;-60
2024/03/23 07:05:08;;;;;;;10.50;5.15;;;12.20;99.90;;;;;;4162591;28;20046;-62
2024/03/23 07:07:08;;;;;;;11.10;4.63;;;12.40;99.90;;;;;;4162974;28;20113;-60
2024/03/23 07:09:09;;;;;;;16.73;5.88;;;12.60;99.90;;;;;;4162649;28;20037;-59
2024/03/23 07:11:10;;;;;;;16.48;5.82;;;12.80;99.90;;;;;;4162040;28;20030;-60
2024/03/23 07:13:10;;;;;;;14.48;5.20;;;12.90;99.90;;;;;;4162781;28;20083;-63
2024/03/23 07:15:11;;;;;;;12.90;5.10;;;12.90;99.90;;;;;;4162201;28;20017;-60
2024/03/23 07:17:11;;;;;;;10.80;4.45;;;13.10;99.90;;;;;;4162771;28;20565;-60
2024/03/23 07:19:12;;;;;;;12.10;5.20;;;13.40;99.90;;;;;;4161440;28;20030;-60
2024/03/23 07:21:13;;;;;;;11.38;3.97;;;13.70;99.90;;;;;;4159203;28;20486;-59
2024/03/23 07:23:13;;;;;;;13.63;4.47;;;13.80;99.90;;;;;;4161959;28;20029;-59
2024/03/23 07:25:14;;;;;;;8.55;3.65;;;14.00;99.90;;;;;;4162066;28;20494;-60
2024/03/23 07:27:15;;;;;;;10.57;3.67;;;14.10;99.90;;;;;;4162741;28;20061;-59
2024/03/23 07:29:16;;;;;;;10.38;3.30;;;14.20;99.90;;;;;;4162558;28;20061;-59
2024/03/23 07:31:16;;;;;;;12.40;4.78;;;14.20;99.90;;;;;;4161862;28;20056;-59
2024/03/23 07:33:17;;;;;;;7.25;3.83;;;14.20;99.90;;;;;;4162847;28;20036;-59
2024/03/23 07:35:18;;;;;;;11.10;3.45;;;14.20;99.90;;;;;;4162082;28;20037;-59
2024/03/23 07:37:19;;;;;;;13.55;3.83;;;14.20;99.90;;;;;;4162488;28;20497;-59
2024/03/23 07:39:19;;;;;;;8.20;3.50;;;14.20;99.90;;;;;;4160962;28;20037;-63
2024/03/23 07:41:20;;;;;;;11.95;3.63;;;14.20;99.90;;;;;;4158030;28;20101;-61
2024/03/23 07:43:22;;;;;;;7.72;3.22;;;14.20;99.90;;;;;;4158757;28;20042;-59
2024/03/23 07:45:22;;;;;;;11.60;3.33;;;14.10;99.90;;;;;;4155692;28;20053;-59
2024/03/23 07:47:23;;;;;;;8.73;3.38;;;14.20;99.90;;;;;;4152009;28;20048;-59
2024/03/23 07:49:23;;;;;;;8.30;3.13;;;14.30;99.90;;;;;;4159005;28;20037;-59
2024/03/23 07:51:24;;;;;;;9.63;3.33;;;14.30;99.90;;;;;;4160529;28;20033;-59
2024/03/23 07:53:25;;;;;;;10.05;3.00;;;14.30;99.90;;;;;;4162426;28;20044;-59
2024/03/23 07:55:26;;;;;;;7.93;3.30;;;14.20;99.90;;;;;;4160376;28;20517;-59
2024/03/23 07:57:27;;;;;;;8.77;2.95;;;14.20;99.90;;;;;;4161916;28;20038;-59
2024/03/23 07:59:31;;;;;;;9.35;3.28;;;14.20;99.90;;;;;;4162184;28;20041;-59
2024/03/23 08:01:31;;;;;;;12.25;3.20;;;14.30;99.90;;;;;;4161729;28;20046;-59
2024/03/23 08:03:32;;;;;;;10.65;3.28;;;14.20;99.90;;;;;;4162105;28;20068;-65
2024/03/23 08:05:33;;;;;;;8.38;3.15;;;14.30;99.90;;;;;;4161573;28;20103;-65
2024/03/23 08:07:35;;;;;;;10.02;2.90;;;14.30;99.90;;;;;;4159978;28;20049;-65
2024/03/23 08:09:35;;;;;;;12.13;3.13;;;14.10;99.90;;;;;;4160939;28;20037;-65
2024/03/23 08:11:36;;;;;;;14.00;3.72;;;13.80;99.90;;;;;;4161762;28;20030;-65
2024/03/23 08:13:39;;;;;;;13.75;3.63;;;13.60;99.90;;;;;;4162571;28;20037;-70
2024/03/23 08:15:40;;;;;;;9.02;3.15;;;13.30;99.90;;;;;;4161484;28;20461;-70
2024/03/23 08:17:41;;;;;;;8.70;2.97;;;12.90;99.90;;;;;;4159599;28;20152;-70
2024/03/23 08:19:41;;;;;;;9.82;3.13;;;12.70;99.90;;;;;;4162006;28;20471;-68
2024/03/23 08:21:42;;;;;;;8.00;2.50;;;12.50;99.90;;;;;;4161432;28;20057;-70
2024/03/23 08:23:42;;;;;;;5.78;2.33;;;12.30;99.90;;;;;;4162077;28;20036;-69
2024/03/23 08:25:43;;;;;;;9.27;2.63;;;11.80;99.90;;;;;;4161380;28;20028;-70
2024/03/23 08:27:47;;;;;;;6.50;2.00;;;11.60;99.90;;;;;;4160511;28;20044;-71
2024/03/23 08:29:47;;;;;;;3.13;1.50;;;11.50;99.90;;;;;;4162088;28;20029;-70
2024/03/23 08:31:48;;;;;;;8.95;2.50;;;11.30;99.90;;;;;;4161416;28;20363;-71
2024/03/23 08:33:48;;;;;;;6.63;2.10;;;11.30;99.90;;;;;;4160546;28;20448;-71
2024/03/23 08:36:02;;;;;;;5.63;1.90;;;11.10;99.90;;;;;;4161539;28;20037;-70
2024/03/23 08:38:02;;;;;;;5.75;1.85;;;10.90;99.90;;;;;;4160486;28;20034;-70
2024/03/23 08:40:04;;;;;;;4.82;1.60;;;10.90;99.90;;;;;;4161870;28;20049;-71
2024/03/23 08:42:05;;;;;;;8.27;2.13;;;10.90;99.90;;;;;;4161687;28;20025;-70
2024/03/23 08:44:05;;;;;;;6.88;2.42;;;10.80;99.90;;;;;;4161838;28;20036;-70
2024/03/23 08:46:08;;;;;;;5.28;2.03;;;10.90;99.90;;;;;;4161315;28;20377;-70
2024/03/23 08:48:09;;;;;;;7.28;2.58;;;10.90;99.90;;;;;;4162013;28;20034;-70
2024/03/23 08:50:09;;;;;;;7.38;2.55;;;11.00;99.90;;;;;;4161321;28;20034;-69
2024/03/23 08:52:10;;;;;;;7.65;2.53;;;11.10;99.90;;;;;;4176929;28;20032;-68
2024/03/23 08:54:10;;;;;;;15.38;2.97;;;11.20;99.90;;;;;;4162052;28;22491;-69
2024/03/23 08:56:11;;;;;;;10.40;2.65;;;11.30;99.90;;;;;;4161354;28;20045;-69
2024/03/23 08:58:13;;;;;;;13.02;4.18;;;11.40;99.90;;;;;;4161409;28;20038;-68
2024/03/23 09:00:14;;;;;;;13.70;3.23;;;11.40;99.90;;;;;;4161207;28;20030;-69
2024/03/23 09:02:15;;;;;;;8.63;2.83;;;11.50;99.90;;;;;;4161704;28;20030;-69
2024/03/23 09:04:15;;;;;;;9.50;3.15;;;11.60;99.90;;;;;;4161838;28;20040;-69
2024/03/23 09:06:16;;;;;;;10.52;3.65;;;11.80;99.90;;;;;;4161010;28;20555;-69
2024/03/23 09:08:17;;;;;;;13.00;3.75;;;11.80;99.90;;;;;;4161810;28;20451;-69
2024/03/23 09:10:18;;;;;;;9.77;3.15;;;11.80;99.90;;;;;;4158191;28;20057;-69
2024/03/23 09:12:37;;;;;;;8.32;3.65;;;11.80;99.90;;;;;;4163572;28;20041;-69
2024/03/23 09:14:56;;;;;;;9.95;3.60;;;11.80;99.90;;;;;;4137823;28;20040;-69
2024/03/23 09:17:15;;;;;;;9.88;2.88;;;11.90;99.90;;;;;;4117038;28;20056;-69
2024/03/23 09:19:34;;;;;;;7.10;2.75;;;11.90;99.90;;;;;;4134465;28;20045;-69
2024/03/23 09:21:34;;;;;;;10.32;3.50;;;11.80;99.90;;;;;;4162719;28;20029;-69
2024/03/23 09:23:35;;;;;;;14.50;3.42;;;11.70;99.90;;;;;;4160974;28;20045;-63
2024/03/23 09:25:37;;;;;;;12.32;3.33;;;11.60;99.90;;;;;;4159083;28;20120;-63
2024/03/23 09:27:38;;;;;;;9.80;2.60;;;11.60;99.90;;;;;;4160638;28;20033;-63
2024/03/23 09:29:39;;;;;;;10.10;3.05;;;11.50;99.90;;;;;;4160007;28;20041;-63
2024/03/23 09:31:40;;;;;;;12.60;2.80;;;11.40;99.90;;;;;;4158677;28;20132;-63
2024/03/23 09:33:42;;;;;;;8.30;2.40;;;11.30;99.90;;;;;;4160504;28;20087;-63
2024/03/23 09:35:44;;;;;;;14.18;2.88;;;11.30;99.90;;;;;;4162128;28;20037;-63
2024/03/23 09:37:45;;;;;;;7.40;2.20;;;11.20;99.90;;;;;;4164591;28;20041;-63
2024/03/23 09:39:45;;;;;;;14.75;2.42;;;11.20;99.90;;;;;;4164721;28;20175;-63
2024/03/23 09:41:46;;;;;;;12.70;2.47;;;11.20;99.90;;;;;;4162388;28;20095;-63
2024/03/23 09:43:48;;;;;;;7.05;2.33;;;11.30;99.90;;;;;;4164544;28;20176;-63
2024/03/23 09:45:49;;;;;;;7.63;2.17;;;11.20;99.90;;;;;;4162463;28;20128;-63
2024/03/23 09:47:51;;;;;;;10.98;2.67;;;11.20;99.90;;;;;;4164684;28;20030;-63
2024/03/23 09:49:52;;;;;;;8.50;2.17;;;11.20;99.90;;;;;;4164409;28;20037;-63
2024/03/23 09:51:55;;;;;;;12.35;2.92;;;11.10;99.90;;;;;;4163793;28;20095;-63
2024/03/23 09:53:55;;;;;;;10.80;2.05;;;11.10;99.90;;;;;;4163803;28;20041;-65
2024/03/23 09:55:56;;;;;;;5.75;1.80;;;11.10;99.90;;;;;;4161929;28;20487;-63
2024/03/23 09:57:56;;;;;;;10.60;2.33;;;11.10;99.90;;;;;;4163868;28;20045;-64
2024/03/23 09:59:57;;;;;;;7.82;2.03;;;11.10;99.90;;;;;;4162723;28;20063;-64
2024/03/23 10:01:58;;;;;;;9.38;2.08;;;11.20;99.90;;;;;;4163577;28;20038;-63
2024/03/23 10:03:59;;;;;;;9.10;1.83;;;11.20;99.90;;;;;;4163691;28;20037;-63
2024/03/23 10:06:04;;;;;;;10.52;2.20;;;11.20;99.90;;;;;;4163333;28;20133;-63
2024/03/23 10:08:14;;;;;;;4.80;1.73;;;11.30;99.90;;;;;;4162638;28;20080;-63
2024/03/23 10:10:16;;;;;;;7.72;1.92;;;11.30;99.90;;;;;;4163567;28;21067;-63
2024/03/23 10:12:18;;;;;;;5.83;2.30;;;11.30;99.90;;;;;;4164221;28;20038;-63
2024/03/23 10:14:45;;;;;;;9.13;1.75;;;11.30;99.90;;;;;;4162561;28;20588;-63
2024/03/23 10:16:45;;;;;;;8.18;1.90;;;11.10;99.90;;;;;;4161792;28;20038;-63
2024/03/23 10:18:46;;;;;;;8.70;2.00;;;10.90;99.90;;;;;;4160557;28;20393;-63
2024/03/23 10:21:08;;;;;;;6.20;1.70;;;10.60;99.90;;;;;;4163075;28;20057;-63
2024/03/23 10:23:16;;;;;;;6.90;1.60;;;10.20;99.90;;;;;;4163396;28;20356;-63
2024/03/23 10:25:17;;;;;;;10.13;1.70;;;9.90;99.90;;;;;;4162821;28;20061;-63
2024/03/23 10:27:21;;;;;;;3.65;1.25;;;9.60;99.90;;;;;;4163552;28;20037;-62
2024/03/23 10:29:22;;;;;;;7.95;1.02;;;9.50;99.90;;;;;;4163400;28;20048;-63
2024/03/23 10:31:22;;;;;;;6.60;1.30;;;9.50;99.90;;;;;;4162417;28;20036;-63
2024/03/23 10:33:23;;;;;;;2.15;0.90;;;9.30;99.90;;;;;;4163796;28;20087;-70
2024/03/23 10:35:23;;;;;;;2.67;0.52;;;9.10;99.90;;;;;;4162875;28;20038;-70